Time;durP1;ratioP1;P1;durP2;ratioP2;P2;SDS_P1;SDS_P2;PMS_P1;PMS_P2;Temp;Humidity;BMP_temperature;BMP_pressure;BME280_temperature;BME280_humidity;BME280_pressure;Samples;Min_cycle;Max_cycle;Signal;HPM_P1;HPM_P2
2024/01/27 00:00:08;;;;;;;9.40;6.10;;;2.30;99.90;;;;;;3109857;28;20405;-88
2024/01/27 00:01:40;;;;;;;12.68;6.72;;;;;;;;;;3110890;28;20148;-86
2024/01/27 00:03:11;;;;;;;10.65;7.00;;;2.20;99.90;;;;;;3106528;28;20057;-87
2024/01/27 00:04:41;;;;;;;9.05;6.28;;;2.20;99.90;;;;;;3098777;28;20466;-86
2024/01/27 00:06:12;;;;;;;10.07;6.00;;;2.20;99.90;;;;;;3102772;28;20026;-86
2024/01/27 00:07:43;;;;;;;19.45;7.93;;;2.30;99.90;;;;;;3106073;28;20038;-85
2024/01/27 00:09:14;;;;;;;12.27;7.47;;;2.30;99.90;;;;;;3082510;28;20027;-85
2024/01/27 00:10:45;;;;;;;15.95;9.27;;;2.20;99.90;;;;;;3098218;28;20034;-86
2024/01/27 00:12:16;;;;;;;16.33;7.65;;;2.20;99.90;;;;;;3106408;28;20026;-87
2024/01/27 00:13:47;;;;;;;17.58;7.53;;;2.20;99.90;;;;;;3090484;28;20147;-86
2024/01/27 00:15:18;;;;;;;25.73;7.63;;;2.10;99.90;;;;;;3094551;28;20093;-86
2024/01/27 00:16:49;;;;;;;20.75;9.88;;;2.20;99.90;;;;;;3082691;28;20144;-86
2024/01/27 00:18:19;;;;;;;14.13;7.50;;;2.20;99.90;;;;;;3078326;28;20154;-86
2024/01/27 00:19:53;;;;;;;17.10;7.43;;;2.20;99.90;;;;;;3078429;28;20054;-86
2024/01/27 00:21:25;;;;;;;17.20;7.85;;;2.20;99.90;;;;;;3103207;28;20041;-87
2024/01/27 00:22:56;;;;;;;14.73;6.93;;;;;;;;;;3106835;28;20033;-86
2024/01/27 00:24:27;;;;;;;18.45;6.93;;;2.30;99.90;;;;;;3110871;28;20075;-86
2024/01/27 00:25:58;;;;;;;18.33;8.05;;;2.30;99.90;;;;;;3110746;28;20522;-86
2024/01/27 00:27:29;;;;;;;21.27;9.82;;;2.20;99.90;;;;;;3098289;28;20038;-87
2024/01/27 00:28:59;;;;;;;17.13;8.70;;;2.30;99.90;;;;;;3082728;28;20027;-86
2024/01/27 00:30:30;;;;;;;8.23;6.13;;;2.20;99.90;;;;;;3083032;28;20121;-86
2024/01/27 00:32:01;;;;;;;13.60;7.07;;;2.30;99.90;;;;;;3094407;28;20023;-86
2024/01/27 00:33:32;;;;;;;13.30;6.90;;;2.20;99.90;;;;;;3094099;28;20022;-86
2024/01/27 00:35:03;;;;;;;16.50;6.50;;;2.40;99.90;;;;;;3094670;28;20037;-86
2024/01/27 00:36:36;;;;;;;16.17;8.20;;;2.30;99.90;;;;;;3094145;28;20247;-86
2024/01/27 00:38:08;;;;;;;11.90;7.45;;;;;;;;;;3094530;28;20503;-89
2024/01/27 00:39:39;;;;;;;16.70;9.05;;;2.20;99.90;;;;;;3094414;28;20026;-86
2024/01/27 00:41:16;;;;;;;13.88;7.38;;;2.20;99.90;;;;;;3106172;28;20127;-87
2024/01/27 00:42:47;;;;;;;12.60;6.68;;;2.20;99.90;;;;;;3107498;28;20038;-86
2024/01/27 00:44:17;;;;;;;18.80;6.85;;;2.20;99.90;;;;;;3106477;28;20039;-86
2024/01/27 00:45:48;;;;;;;25.80;9.05;;;2.20;99.90;;;;;;3094245;28;20109;-86
2024/01/27 00:47:19;;;;;;;16.73;5.97;;;2.20;99.90;;;;;;3093906;28;20034;-87
2024/01/27 00:48:50;;;;;;;13.45;7.32;;;2.40;99.90;;;;;;3088971;28;20022;-86
2024/01/27 00:50:21;;;;;;;11.45;7.72;;;2.10;99.90;;;;;;3101177;28;20475;-86
2024/01/27 00:51:51;;;;;;;13.73;6.65;;;2.10;99.90;;;;;;3093993;28;20034;-85
2024/01/27 00:53:22;;;;;;;15.30;8.18;;;2.10;99.90;;;;;;3102152;28;20131;-86
2024/01/27 00:54:53;;;;;;;20.25;9.57;;;2.10;99.90;;;;;;3106334;28;20030;-85
2024/01/27 00:56:24;;;;;;;17.15;8.00;;;2.10;99.90;;;;;;3101791;28;20084;-85
2024/01/27 00:57:55;;;;;;;18.40;7.45;;;2.60;99.90;;;;;;3114163;28;20064;-86
2024/01/27 00:59:25;;;;;;;27.98;8.07;;;2.10;99.90;;;;;;3097992;28;20058;-89
2024/01/27 01:00:58;;;;;;;13.45;6.55;;;2.00;99.90;;;;;;3113391;28;20120;-86
2024/01/27 01:02:29;;;;;;;17.92;8.43;;;2.50;99.90;;;;;;3109958;28;20034;-86
2024/01/27 01:03:59;;;;;;;15.73;7.85;;;2.80;99.90;;;;;;3106011;28;20042;-88
2024/01/27 01:05:30;;;;;;;20.40;8.77;;;2.00;99.90;;;;;;3093773;28;20483;-85
2024/01/27 01:07:01;;;;;;;10.10;8.18;;;1.90;99.90;;;;;;3102288;28;20026;-86
2024/01/27 01:08:32;;;;;;;16.02;7.85;;;2.00;99.90;;;;;;3105876;28;20042;-88
2024/01/27 01:10:04;;;;;;;19.83;7.75;;;1.90;99.90;;;;;;3117322;28;20053;-85
2024/01/27 01:11:35;;;;;;;14.65;7.93;;;1.90;99.90;;;;;;3109981;28;20061;-86
2024/01/27 01:13:05;;;;;;;17.75;7.28;;;1.80;99.90;;;;;;3118509;28;20397;-86
2024/01/27 01:14:36;;;;;;;14.82;8.52;;;1.80;99.90;;;;;;3097945;28;20035;-87
2024/01/27 01:16:08;;;;;;;11.07;6.72;;;1.80;99.90;;;;;;3114177;28;20032;-86
2024/01/27 01:17:39;;;;;;;16.55;7.07;;;1.80;99.90;;;;;;3109898;28;20025;-86
2024/01/27 01:19:09;;;;;;;14.32;8.38;;;1.70;99.90;;;;;;3105975;28;20108;-88
2024/01/27 01:20:40;;;;;;;6.75;5.47;;;1.60;99.90;;;;;;3104964;28;20088;-86
2024/01/27 01:22:12;;;;;;;15.68;7.13;;;1.60;99.90;;;;;;3101613;28;20065;-87
2024/01/27 01:23:42;;;;;;;20.88;8.73;;;2.30;99.90;;;;;;3098219;28;20049;-87
2024/01/27 01:25:13;;;;;;;10.85;6.15;;;1.60;99.90;;;;;;3093802;28;20038;-87
2024/01/27 01:26:44;;;;;;;22.00;8.02;;;1.50;99.90;;;;;;3094076;28;20053;-86
2024/01/27 01:28:15;;;;;;;8.07;7.25;;;1.50;99.90;;;;;;3081730;28;20039;-86
2024/01/27 01:29:45;;;;;;;12.15;7.93;;;1.50;99.90;;;;;;3082139;28;20415;-87
2024/01/27 01:31:16;;;;;;;9.30;5.95;;;1.50;99.90;;;;;;3105513;28;20030;-86
2024/01/27 01:32:47;;;;;;;20.55;9.20;;;1.70;99.90;;;;;;3104244;28;20057;-86
2024/01/27 01:34:18;;;;;;;10.65;8.10;;;2.10;99.90;;;;;;3087657;28;20094;-86
2024/01/27 01:35:49;;;;;;;17.35;7.55;;;1.50;99.90;;;;;;3097247;28;20134;-86
2024/01/27 01:37:20;;;;;;;21.30;7.70;;;1.90;99.90;;;;;;3098474;28;20052;-86
2024/01/27 01:38:50;;;;;;;13.30;6.95;;;2.30;99.90;;;;;;3092420;28;20057;-86
2024/01/27 01:40:22;;;;;;;12.00;6.68;;;1.40;99.90;;;;;;3105012;28;20072;-86
2024/01/27 01:41:53;;;;;;;19.98;7.95;;;1.30;99.90;;;;;;3099904;28;20026;-85
2024/01/27 01:43:23;;;;;;;9.10;6.90;;;1.30;99.90;;;;;;3101504;28;20108;-85
2024/01/27 01:44:55;;;;;;;8.77;6.47;;;1.30;99.90;;;;;;3105638;28;20026;-86
2024/01/27 01:46:25;;;;;;;11.13;6.53;;;1.30;99.90;;;;;;3110445;28;20144;-86
2024/01/27 01:47:56;;;;;;;15.95;8.43;;;1.30;99.90;;;;;;3074092;28;20395;-87
2024/01/27 01:49:27;;;;;;;24.60;7.50;;;1.30;99.90;;;;;;3097475;28;20026;-87
2024/01/27 01:51:00;;;;;;;12.50;7.00;;;1.30;99.90;;;;;;3106626;28;20034;-86
2024/01/27 01:52:31;;;;;;;10.13;7.38;;;1.30;99.90;;;;;;3105819;28;20046;-86
2024/01/27 01:54:02;;;;;;;9.35;6.47;;;1.30;99.90;;;;;;3105842;28;20026;-86
2024/01/27 01:55:34;;;;;;;15.30;7.30;;;1.30;99.90;;;;;;3105806;28;20022;-86
2024/01/27 01:57:05;;;;;;;20.27;7.22;;;1.30;99.90;;;;;;3105962;28;20078;-86
2024/01/27 01:58:36;;;;;;;21.00;7.65;;;1.40;99.90;;;;;;3105922;28;20049;-86
2024/01/27 02:00:07;;;;;;;13.98;7.00;;;1.40;99.90;;;;;;3092856;28;20026;-86
2024/01/27 02:01:43;;;;;;;15.82;7.68;;;1.40;99.90;;;;;;3106607;28;20487;-85
2024/01/27 02:03:14;;;;;;;20.88;7.70;;;1.40;99.90;;;;;;3106499;28;20033;-86
2024/01/27 02:04:45;;;;;;;8.23;7.18;;;1.50;99.90;;;;;;3105855;28;20048;-86
2024/01/27 02:06:16;;;;;;;20.60;10.20;;;1.40;99.90;;;;;;3105442;28;20149;-86
2024/01/27 02:07:47;;;;;;;10.95;7.63;;;1.30;99.90;;;;;;3106130;28;20033;-86
2024/01/27 02:09:18;;;;;;;18.45;8.65;;;1.30;99.90;;;;;;3105783;28;20061;-85
2024/01/27 02:10:49;;;;;;;19.77;9.07;;;1.30;99.90;;;;;;3108680;28;20026;-86
2024/01/27 02:12:20;;;;;;;10.18;8.30;;;1.30;99.90;;;;;;3105691;28;20481;-86
2024/01/27 02:13:50;;;;;;;11.68;5.90;;;1.30;99.90;;;;;;3097496;28;20026;-87
2024/01/27 02:15:21;;;;;;;19.10;8.65;;;1.30;99.90;;;;;;3089274;28;20026;-86
2024/01/27 02:16:52;;;;;;;13.50;7.75;;;1.30;99.90;;;;;;3101821;28;20546;-86
2024/01/27 02:18:23;;;;;;;16.90;9.52;;;1.30;99.90;;;;;;3105706;28;20046;-86
2024/01/27 02:19:54;;;;;;;14.18;8.50;;;1.30;99.90;;;;;;3092320;28;20027;-86
2024/01/27 02:21:25;;;;;;;18.83;9.45;;;1.70;99.90;;;;;;3089457;28;20138;-87
2024/01/27 02:22:56;;;;;;;13.18;6.45;;;1.50;99.90;;;;;;3095075;28;20034;-86
2024/01/27 02:24:28;;;;;;;12.90;8.50;;;1.20;99.90;;;;;;3087547;28;20065;-86
2024/01/27 02:25:59;;;;;;;11.13;8.82;;;1.20;99.90;;;;;;3092043;28;20375;-86
2024/01/27 02:27:30;;;;;;;20.88;8.30;;;1.20;99.90;;;;;;3105985;28;20117;-85
2024/01/27 02:29:00;;;;;;;13.35;7.07;;;1.90;99.90;;;;;;3108296;28;20075;-85
2024/01/27 02:30:31;;;;;;;31.60;10.30;;;1.20;99.90;;;;;;3118816;28;20229;-86
2024/01/27 02:32:02;;;;;;;16.75;8.55;;;1.40;99.90;;;;;;3099892;28;20093;-86
2024/01/27 02:33:33;;;;;;;12.57;8.57;;;1.20;99.90;;;;;;3103994;28;20026;-86
2024/01/27 02:35:04;;;;;;;10.13;8.25;;;1.20;99.90;;;;;;3100420;28;20035;-85
2024/01/27 02:36:35;;;;;;;21.65;9.57;;;1.20;99.90;;;;;;3115836;28;20052;-86
2024/01/27 02:38:06;;;;;;;22.98;7.22;;;1.20;99.90;;;;;;3099914;28;20034;-86
2024/01/27 02:39:37;;;;;;;18.80;8.10;;;1.20;99.90;;;;;;3078856;28;20034;-86
2024/01/27 02:41:10;;;;;;;21.15;9.50;;;1.90;99.90;;;;;;3086650;28;20026;-86
2024/01/27 02:42:42;;;;;;;15.05;8.73;;;1.20;99.90;;;;;;3116593;28;20037;-86
2024/01/27 02:44:13;;;;;;;14.20;7.30;;;1.20;99.90;;;;;;3111892;28;20057;-88
2024/01/27 02:45:43;;;;;;;8.82;7.57;;;1.90;99.90;;;;;;3103164;28;20129;-86
2024/01/27 02:47:14;;;;;;;9.40;8.38;;;1.40;99.90;;;;;;3116059;28;20113;-88
2024/01/27 02:48:46;;;;;;;14.80;7.13;;;1.10;99.90;;;;;;3099640;28;20026;-85
2024/01/27 02:50:16;;;;;;;14.02;6.90;;;1.10;99.90;;;;;;3106226;28;20462;-87
2024/01/27 02:51:47;;;;;;;22.13;8.80;;;1.10;99.90;;;;;;3111674;28;20025;-86
2024/01/27 02:53:19;;;;;;;13.50;8.70;;;;;;;;;;3107674;28;20026;-85
2024/01/27 02:54:50;;;;;;;18.67;9.68;;;1.00;99.90;;;;;;3107662;28;20034;-85
2024/01/27 02:56:21;;;;;;;20.25;7.82;;;1.00;99.90;;;;;;3087882;28;20488;-85
2024/01/27 02:57:52;;;;;;;15.55;9.65;;;1.60;99.90;;;;;;3083466;28;20034;-84
2024/01/27 02:59:23;;;;;;;26.52;7.32;;;1.10;99.90;;;;;;3091717;28;20423;-86
2024/01/27 03:00:54;;;;;;;16.98;8.90;;;1.90;99.90;;;;;;3103119;28;20506;-86
2024/01/27 03:02:24;;;;;;;15.60;8.38;;;1.20;99.90;;;;;;3111246;28;20494;-86
2024/01/27 03:03:55;;;;;;;16.60;6.38;;;1.10;99.90;;;;;;3087523;28;20027;-86
2024/01/27 03:05:26;;;;;;;13.90;7.60;;;1.10;99.90;;;;;;3103149;28;20038;-86
2024/01/27 03:06:57;;;;;;;21.23;8.13;;;1.10;99.90;;;;;;3107791;28;20096;-86
2024/01/27 03:08:28;;;;;;;11.40;7.70;;;1.90;99.90;;;;;;3095265;28;20074;-86
2024/01/27 03:09:58;;;;;;;13.82;8.63;;;1.00;99.90;;;;;;3101075;28;20026;-86
2024/01/27 03:11:29;;;;;;;11.48;7.60;;;1.00;99.90;;;;;;3095082;28;20066;-85
2024/01/27 03:13:00;;;;;;;13.65;6.97;;;1.00;99.90;;;;;;3083362;28;20038;-86
2024/01/27 03:14:31;;;;;;;12.07;7.18;;;0.90;99.90;;;;;;3093175;28;20030;-86
2024/01/27 03:16:01;;;;;;;25.20;9.02;;;1.00;99.90;;;;;;3107651;28;20026;-86
2024/01/27 03:17:32;;;;;;;16.33;7.88;;;0.90;99.90;;;;;;3094975;28;20026;-86
2024/01/27 03:19:03;;;;;;;20.63;9.60;;;0.90;99.90;;;;;;3103789;28;20058;-88
2024/01/27 03:20:34;;;;;;;14.73;8.60;;;0.80;99.90;;;;;;3100630;28;20026;-86
2024/01/27 03:22:05;;;;;;;10.48;6.55;;;0.90;99.90;;;;;;3087212;28;20082;-87
2024/01/27 03:23:36;;;;;;;11.55;7.97;;;0.80;99.90;;;;;;3102060;28;20095;-85
2024/01/27 03:25:09;;;;;;;11.57;8.45;;;0.90;99.90;;;;;;3099676;28;20054;-86
2024/01/27 03:26:40;;;;;;;17.65;7.65;;;0.90;99.90;;;;;;3095250;28;20356;-85
2024/01/27 03:28:11;;;;;;;11.13;7.32;;;0.80;99.90;;;;;;3095112;28;20059;-86
2024/01/27 03:29:42;;;;;;;7.35;6.63;;;0.80;99.90;;;;;;3095131;28;20026;-85
2024/01/27 03:31:13;;;;;;;13.63;7.95;;;0.70;99.90;;;;;;3093734;28;20034;-85
2024/01/27 03:32:43;;;;;;;15.88;9.13;;;0.70;99.90;;;;;;3102674;28;20036;-85
2024/01/27 03:34:14;;;;;;;10.70;8.00;;;0.80;99.90;;;;;;3094099;28;20061;-85
2024/01/27 03:35:45;;;;;;;14.20;6.45;;;0.70;99.90;;;;;;3098835;28;20043;-85
2024/01/27 03:37:16;;;;;;;10.82;7.82;;;0.80;99.90;;;;;;3099068;28;20084;-88
2024/01/27 03:38:46;;;;;;;9.13;8.20;;;0.70;99.90;;;;;;3090941;28;20030;-86
2024/01/27 03:40:18;;;;;;;11.18;7.93;;;0.80;99.90;;;;;;3102201;28;20026;-87
2024/01/27 03:41:49;;;;;;;10.68;8.40;;;0.80;99.90;;;;;;3106899;28;20022;-85
2024/01/27 03:43:20;;;;;;;9.07;7.47;;;0.80;99.90;;;;;;3107114;28;20034;-86
2024/01/27 03:44:50;;;;;;;22.85;10.25;;;0.70;99.90;;;;;;3095249;28;20109;-85
2024/01/27 03:46:21;;;;;;;15.52;8.73;;;1.90;99.90;;;;;;3102758;28;20025;-85
2024/01/27 03:47:52;;;;;;;17.83;9.65;;;1.40;99.90;;;;;;3107067;28;20037;-87
2024/01/27 03:49:23;;;;;;;17.42;8.30;;;0.80;99.90;;;;;;3098930;28;20044;-86
2024/01/27 03:50:53;;;;;;;10.35;7.68;;;1.40;99.90;;;;;;3114403;28;20041;-87
2024/01/27 03:52:25;;;;;;;16.85;8.23;;;;;;;;;;3090560;28;20501;-86
2024/01/27 03:53:55;;;;;;;11.38;7.07;;;0.90;99.90;;;;;;3111394;28;20072;-86
2024/01/27 03:55:26;;;;;;;14.88;9.18;;;1.50;99.90;;;;;;3098652;28;20471;-86
2024/01/27 03:56:57;;;;;;;11.95;7.38;;;1.60;99.90;;;;;;3115010;28;20547;-86
2024/01/27 03:58:28;;;;;;;14.35;8.88;;;0.80;99.90;;;;;;3110943;28;20037;-86
2024/01/27 03:59:59;;;;;;;10.48;7.68;;;0.80;99.90;;;;;;3107042;28;20033;-86
2024/01/27 04:01:30;;;;;;;9.10;7.78;;;0.80;99.90;;;;;;3098526;28;20430;-86
2024/01/27 04:03:01;;;;;;;12.80;9.13;;;1.50;99.90;;;;;;3107442;28;20037;-85
2024/01/27 04:04:32;;;;;;;13.23;7.78;;;0.80;99.90;;;;;;3110771;28;20088;-85
2024/01/27 04:06:03;;;;;;;9.98;7.80;;;0.80;99.90;;;;;;3106762;28;20480;-85
2024/01/27 04:07:34;;;;;;;16.95;8.65;;;0.80;99.90;;;;;;3106510;28;21124;-85
2024/01/27 04:09:08;;;;;;;14.63;8.23;;;0.80;99.90;;;;;;3107472;28;20117;-86
2024/01/27 04:10:39;;;;;;;18.00;8.38;;;1.20;99.90;;;;;;3105931;28;20053;-86
2024/01/27 04:12:10;;;;;;;25.17;9.32;;;1.20;99.90;;;;;;3111860;28;20038;-86
2024/01/27 04:13:41;;;;;;;24.42;9.60;;;0.80;99.90;;;;;;3099179;28;20157;-85
2024/01/27 04:15:11;;;;;;;9.88;8.70;;;0.80;99.90;;;;;;3104764;28;20033;-86
2024/01/27 04:16:42;;;;;;;18.42;9.10;;;1.40;99.90;;;;;;3109211;28;20034;-85
2024/01/27 04:18:13;;;;;;;17.92;6.47;;;1.30;99.90;;;;;;3098375;28;20026;-86
2024/01/27 04:19:44;;;;;;;11.15;8.10;;;0.60;99.90;;;;;;3118713;28;20040;-85
2024/01/27 04:21:15;;;;;;;20.75;11.50;;;0.60;99.90;;;;;;3113453;28;20018;-86
2024/01/27 04:22:46;;;;;;;22.02;8.85;;;0.60;99.90;;;;;;3085277;28;20122;-85
2024/01/27 04:24:16;;;;;;;13.90;9.27;;;0.60;99.90;;;;;;3072811;28;20027;-86
2024/01/27 04:25:47;;;;;;;21.73;9.57;;;0.50;99.90;;;;;;3108617;28;20053;-87
2024/01/27 04:27:18;;;;;;;18.08;9.05;;;1.30;99.90;;;;;;3100938;28;20011;-91
2024/01/27 04:28:49;;;;;;;17.85;9.13;;;1.20;99.90;;;;;;3108740;28;20085;-89
2024/01/27 04:30:19;;;;;;;11.95;8.93;;;0.50;99.90;;;;;;3104338;28;20015;-91
2024/01/27 04:31:51;;;;;;;17.35;8.57;;;0.70;99.90;;;;;;3117411;28;20021;-89
2024/01/27 04:33:21;;;;;;;16.98;7.85;;;0.50;99.90;;;;;;3108519;28;20041;-91
2024/01/27 04:34:52;;;;;;;21.15;10.07;;;0.50;99.90;;;;;;3121527;28;20014;-89
2024/01/27 04:36:29;;;;;;;15.82;8.50;;;0.60;99.90;;;;;;3124970;28;20014;-93
2024/01/27 04:38:00;;;;;;;13.00;8.57;;;0.50;99.90;;;;;;3122678;28;20052;-86
2024/01/27 04:39:31;;;;;;;17.05;9.43;;;0.60;99.90;;;;;;3120504;28;20010;-86
2024/01/27 04:41:02;;;;;;;16.02;9.05;;;0.70;99.90;;;;;;3111692;28;20029;-86
2024/01/27 04:42:34;;;;;;;16.67;8.98;;;0.50;99.90;;;;;;3097762;28;20049;-85
2024/01/27 04:44:05;;;;;;;19.83;9.60;;;0.50;99.90;;;;;;3110360;28;20015;-84
2024/01/27 04:45:36;;;;;;;22.95;10.00;;;1.50;99.90;;;;;;3109631;28;20018;-85
2024/01/27 04:47:07;;;;;;;13.68;7.47;;;0.40;99.90;;;;;;3102531;28;20042;-86
2024/01/27 04:48:38;;;;;;;14.05;8.77;;;;;;;;;;3107039;28;20076;-86
2024/01/27 04:50:09;;;;;;;21.38;9.90;;;0.50;99.90;;;;;;3098999;28;20499;-85
2024/01/27 04:51:40;;;;;;;21.85;9.52;;;0.40;99.90;;;;;;3095054;28;20034;-85
2024/01/27 04:53:11;;;;;;;10.25;8.38;;;0.30;99.90;;;;;;3083196;28;20117;-86
2024/01/27 04:54:42;;;;;;;12.25;9.50;;;0.30;99.90;;;;;;3090356;28;20177;-86
2024/01/27 04:56:13;;;;;;;14.73;7.93;;;0.30;99.90;;;;;;3094780;28;20035;-85
2024/01/27 04:57:43;;;;;;;17.98;9.82;;;0.30;99.90;;;;;;3094274;28;20026;-85
2024/01/27 04:59:14;;;;;;;13.00;8.73;;;0.30;99.90;;;;;;3099417;28;20034;-86
2024/01/27 05:00:46;;;;;;;11.07;8.45;;;0.30;99.90;;;;;;3105552;28;20120;-85
2024/01/27 05:02:17;;;;;;;22.33;8.93;;;0.30;99.90;;;;;;3106597;28;20509;-86
2024/01/27 05:03:48;;;;;;;16.40;8.45;;;0.20;99.90;;;;;;3108719;28;20426;-86
2024/01/27 05:05:19;;;;;;;13.27;9.00;;;0.10;99.90;;;;;;3103396;28;20026;-85
2024/01/27 05:06:49;;;;;;;10.85;8.25;;;0.10;99.90;;;;;;3107214;28;20058;-85
2024/01/27 05:08:20;;;;;;;13.90;10.30;;;0.10;99.90;;;;;;3110471;28;20022;-87
2024/01/27 05:09:51;;;;;;;11.27;10.05;;;0.10;99.90;;;;;;3097993;28;20026;-87
2024/01/27 05:11:33;;;;;;;12.38;8.18;;;0.00;99.90;;;;;;3108339;28;20044;-86
2024/01/27 05:13:04;;;;;;;17.83;8.77;;;0.00;99.90;;;;;;3108208;28;20029;-86
2024/01/27 05:14:35;;;;;;;14.02;9.25;;;0.50;99.90;;;;;;3106587;28;20038;-85
2024/01/27 05:16:06;;;;;;;8.45;7.65;;;0.90;99.90;;;;;;3094416;28;20402;-85
2024/01/27 05:17:37;;;;;;;10.43;8.95;;;-0.20;99.90;;;;;;3078336;28;20042;-86
2024/01/27 05:19:07;;;;;;;14.82;9.25;;;-0.20;99.90;;;;;;3110905;28;20025;-85
2024/01/27 05:20:38;;;;;;;17.05;10.10;;;-0.40;99.90;;;;;;3109336;28;20418;-85
2024/01/27 05:22:09;;;;;;;12.35;7.82;;;-0.20;99.90;;;;;;3106611;28;20459;-86
2024/01/27 05:23:41;;;;;;;18.25;10.15;;;0.20;99.90;;;;;;3098232;28;20054;-86
2024/01/27 05:25:12;;;;;;;15.05;8.15;;;0.00;99.90;;;;;;3094629;28;20092;-86
2024/01/27 05:26:43;;;;;;;17.30;8.55;;;-0.40;99.90;;;;;;3090308;28;20034;-85
2024/01/27 05:28:13;;;;;;;21.02;10.95;;;0.20;99.90;;;;;;3090550;28;20463;-86
2024/01/27 05:29:44;;;;;;;13.73;9.75;;;;;;;;;;3106507;28;20026;-85
2024/01/27 05:31:15;;;;;;;17.38;9.27;;;-0.50;99.90;;;;;;3093386;28;20117;-85
2024/01/27 05:32:46;;;;;;;28.35;10.95;;;-0.60;99.90;;;;;;3077861;28;20035;-86
2024/01/27 05:34:17;;;;;;;18.38;10.65;;;-0.60;99.90;;;;;;3110264;28;20029;-85
2024/01/27 05:35:48;;;;;;;18.85;8.93;;;-0.60;99.90;;;;;;3107944;28;20026;-85
2024/01/27 05:37:18;;;;;;;21.55;11.57;;;-0.60;99.90;;;;;;3092396;28;20118;-86
2024/01/27 05:38:49;;;;;;;21.23;10.20;;;-0.60;99.90;;;;;;3089861;28;20069;-87
2024/01/27 05:40:20;;;;;;;8.57;7.70;;;-0.70;99.90;;;;;;3101304;28;20025;-85
2024/01/27 05:41:51;;;;;;;13.68;10.75;;;-0.80;99.90;;;;;;3099371;28;20499;-85
2024/01/27 05:43:22;;;;;;;14.38;9.20;;;-0.80;99.90;;;;;;3090472;28;20026;-85
2024/01/27 05:44:53;;;;;;;18.63;10.82;;;-0.50;99.90;;;;;;3089871;28;20054;-85
2024/01/27 05:46:27;;;;;;;11.65;8.52;;;0.00;99.90;;;;;;3113958;28;20025;-87
2024/01/27 05:47:57;;;;;;;15.55;10.25;;;-0.80;99.90;;;;;;3110063;28;20030;-86
2024/01/27 05:49:28;;;;;;;20.88;10.32;;;-0.80;99.90;;;;;;3109876;28;20566;-86
2024/01/27 05:51:00;;;;;;;21.80;12.63;;;-0.80;99.90;;;;;;3109846;28;20030;-85
2024/01/27 05:52:31;;;;;;;23.75;11.73;;;-0.30;99.90;;;;;;3097478;28;20037;-86
2024/01/27 05:54:02;;;;;;;15.88;11.38;;;-0.70;99.90;;;;;;3113788;28;20068;-85
2024/01/27 05:55:33;;;;;;;17.20;10.93;;;-0.50;99.90;;;;;;3109676;28;20109;-85
2024/01/27 05:57:04;;;;;;;23.02;13.27;;;-0.40;99.90;;;;;;3104611;28;20045;-87
2024/01/27 05:58:35;;;;;;;22.08;14.00;;;-0.30;99.90;;;;;;3108942;28;20057;-85
2024/01/27 06:00:09;;;;;;;24.23;13.15;;;-0.10;99.90;;;;;;3100262;28;20073;-86
2024/01/27 06:01:41;;;;;;;19.88;12.77;;;-0.30;99.90;;;;;;3108225;28;20482;-85
2024/01/27 06:03:12;;;;;;;23.10;12.65;;;-0.30;99.90;;;;;;3108319;28;20037;-85
2024/01/27 06:04:43;;;;;;;32.60;13.35;;;-0.10;99.90;;;;;;3107850;28;20497;-85
2024/01/27 06:06:13;;;;;;;22.15;17.23;;;-0.10;99.90;;;;;;3120104;28;20108;-85
2024/01/27 06:07:46;;;;;;;23.90;14.75;;;;;;;;;;3099067;28;20618;-85
2024/01/27 06:09:17;;;;;;;22.65;13.43;;;0.00;99.90;;;;;;3104495;28;20149;-85
2024/01/27 06:10:48;;;;;;;24.95;14.85;;;;;;;;;;3093532;28;20634;-85
2024/01/27 06:12:20;;;;;;;52.33;18.23;;;0.20;99.90;;;;;;3101672;28;20429;-85
2024/01/27 06:13:50;;;;;;;26.05;16.27;;;0.50;99.90;;;;;;3099363;28;20105;-86
2024/01/27 06:15:21;;;;;;;24.25;15.73;;;0.20;99.90;;;;;;3108372;28;20029;-88
2024/01/27 06:16:52;;;;;;;23.35;15.98;;;0.20;99.90;;;;;;3091575;28;20513;-87
2024/01/27 06:18:24;;;;;;;26.98;14.40;;;0.50;99.90;;;;;;3113587;28;20129;-87
2024/01/27 06:19:55;;;;;;;23.42;16.98;;;0.20;99.90;;;;;;3098601;28;20467;-86
2024/01/27 06:21:27;;;;;;;24.40;14.93;;;0.00;99.90;;;;;;3100091;28;20094;-90
2024/01/27 06:22:58;;;;;;;26.08;15.77;;;0.20;99.90;;;;;;3092190;28;20038;-88
2024/01/27 06:24:28;;;;;;;28.85;17.10;;;0.10;99.90;;;;;;3103754;28;20034;-87
2024/01/27 06:26:03;;;;;;;23.35;12.93;;;0.10;99.90;;;;;;3099358;28;20030;-86
2024/01/27 06:27:34;;;;;;;17.25;13.45;;;0.00;99.90;;;;;;3093123;28;20945;-86
2024/01/27 06:29:05;;;;;;;29.50;14.55;;;0.00;99.90;;;;;;3098334;28;20034;-86
2024/01/27 06:30:36;;;;;;;21.58;12.18;;;0.20;99.90;;;;;;3101359;28;20026;-85
2024/01/27 06:32:06;;;;;;;21.67;12.93;;;-0.10;99.90;;;;;;3100523;28;20034;-86
2024/01/27 06:33:37;;;;;;;19.70;12.77;;;-0.10;99.90;;;;;;3096186;28;20057;-87
2024/01/27 06:35:08;;;;;;;27.52;14.88;;;;;;;;;;3116239;28;20032;-85
2024/01/27 06:36:39;;;;;;;27.30;15.23;;;0.00;99.90;;;;;;3100438;28;20458;-86
2024/01/27 06:38:10;;;;;;;22.45;14.95;;;0.60;99.90;;;;;;3103930;28;20026;-86
2024/01/27 06:39:41;;;;;;;40.15;17.20;;;0.00;99.90;;;;;;3111634;28;20041;-86
2024/01/27 06:41:11;;;;;;;22.77;15.40;;;0.10;99.90;;;;;;3097624;28;20121;-86
2024/01/27 06:42:42;;;;;;;31.70;17.45;;;0.00;99.90;;;;;;3103694;28;20041;-87
2024/01/27 06:44:13;;;;;;;21.80;15.57;;;0.00;99.90;;;;;;3100849;28;20117;-88
2024/01/27 06:45:44;;;;;;;40.78;18.45;;;0.10;99.90;;;;;;3088826;28;20454;-87
2024/01/27 06:47:15;;;;;;;32.17;16.88;;;0.00;99.90;;;;;;3081724;28;20031;-87
2024/01/27 06:48:45;;;;;;;38.40;16.45;;;0.10;99.90;;;;;;3112163;28;20037;-86
2024/01/27 06:50:16;;;;;;;23.58;14.70;;;0.10;99.90;;;;;;3098481;28;20041;-87
2024/01/27 06:51:47;;;;;;;27.00;17.25;;;0.10;99.90;;;;;;3097686;28;20026;-87
2024/01/27 06:53:20;;;;;;;30.20;16.77;;;0.00;99.90;;;;;;3107849;28;20557;-86
2024/01/27 06:54:51;;;;;;;16.88;14.27;;;0.60;99.90;;;;;;3085005;28;20503;-86
2024/01/27 06:56:22;;;;;;;32.47;18.20;;;0.00;99.90;;;;;;3107287;28;20068;-86
2024/01/27 06:57:53;;;;;;;21.70;17.10;;;0.00;99.90;;;;;;3111855;28;20030;-86
2024/01/27 06:59:24;;;;;;;37.00;18.83;;;0.00;99.90;;;;;;3099689;28;20053;-87
2024/01/27 07:00:55;;;;;;;23.52;17.05;;;0.00;99.90;;;;;;3114162;28;20025;-85
2024/01/27 07:02:26;;;;;;;29.40;16.10;;;0.00;99.90;;;;;;3099204;28;20388;-88
2024/01/27 07:03:57;;;;;;;31.85;15.80;;;0.00;99.90;;;;;;3103476;28;20061;-86
2024/01/27 07:05:28;;;;;;;23.67;18.63;;;0.10;99.90;;;;;;3124464;28;20026;-88
2024/01/27 07:06:59;;;;;;;21.58;17.77;;;0.00;99.90;;;;;;3111000;28;20506;-86
2024/01/27 07:08:29;;;;;;;23.80;15.98;;;0.70;99.90;;;;;;3095104;28;20026;-87
2024/01/27 07:10:01;;;;;;;33.63;15.45;;;0.80;99.90;;;;;;3096658;28;20054;-86
2024/01/27 07:11:31;;;;;;;31.67;17.08;;;0.20;99.90;;;;;;3119785;28;20083;-85
2024/01/27 07:13:03;;;;;;;24.70;16.15;;;0.20;99.90;;;;;;3099623;28;20098;-86
2024/01/27 07:14:34;;;;;;;29.30;18.20;;;0.20;99.90;;;;;;3115910;28;20030;-85
2024/01/27 07:16:05;;;;;;;29.75;17.27;;;0.20;99.90;;;;;;3112723;28;20042;-86
2024/01/27 07:17:36;;;;;;;28.70;18.85;;;0.20;99.90;;;;;;3094960;28;20449;-85
2024/01/27 07:19:07;;;;;;;32.88;16.75;;;0.20;99.90;;;;;;3091393;28;20128;-86
2024/01/27 07:20:37;;;;;;;25.88;15.68;;;0.30;99.90;;;;;;3094150;28;20058;-85
2024/01/27 07:22:09;;;;;;;24.08;16.65;;;1.00;99.90;;;;;;3091188;28;20034;-86
2024/01/27 07:23:40;;;;;;;35.97;20.98;;;0.30;99.90;;;;;;3091088;28;20026;-86
2024/01/27 07:25:10;;;;;;;36.85;23.40;;;0.30;99.90;;;;;;3103635;28;20030;-86
2024/01/27 07:26:41;;;;;;;34.00;21.17;;;0.30;99.90;;;;;;3095040;28;20027;-85
2024/01/27 07:28:15;;;;;;;42.83;22.27;;;0.40;99.90;;;;;;3103566;28;20034;-86
2024/01/27 07:29:46;;;;;;;43.75;34.17;;;0.40;99.90;;;;;;3107560;28;20034;-87
2024/01/27 07:31:17;;;;;;;45.30;22.55;;;0.40;99.90;;;;;;3106186;28;20030;-86
2024/01/27 07:32:48;;;;;;;31.33;23.58;;;0.40;99.90;;;;;;3090704;28;20666;-86
2024/01/27 07:34:19;;;;;;;46.22;28.90;;;0.50;99.90;;;;;;3091404;28;20110;-87
2024/01/27 07:35:49;;;;;;;35.05;19.38;;;0.90;99.90;;;;;;3082946;28;20022;-88
2024/01/27 07:37:21;;;;;;;41.53;28.15;;;;;;;;;;3082267;28;20023;-86
2024/01/27 07:38:51;;;;;;;32.00;19.92;;;0.50;99.90;;;;;;3107624;28;20486;-87
2024/01/27 07:40:22;;;;;;;27.33;18.90;;;0.50;99.90;;;;;;3110853;28;20080;-86
2024/01/27 07:41:53;;;;;;;31.35;19.40;;;0.80;99.90;;;;;;3110937;28;20030;-86
2024/01/27 07:43:25;;;;;;;42.45;28.75;;;0.60;99.90;;;;;;3091181;28;20035;-86
2024/01/27 07:44:57;;;;;;;63.30;45.67;;;0.60;99.90;;;;;;3103451;28;20029;-86
2024/01/27 07:46:28;;;;;;;64.88;43.92;;;1.10;99.90;;;;;;3086648;28;20594;-88
2024/01/27 07:47:58;;;;;;;70.18;40.35;;;1.20;99.90;;;;;;3113519;28;20034;-86
2024/01/27 07:49:29;;;;;;;74.28;48.47;;;0.70;99.90;;;;;;3110872;28;20080;-88
2024/01/27 07:51:00;;;;;;;44.80;27.98;;;0.70;99.90;;;;;;3102546;28;20032;-86
2024/01/27 07:52:31;;;;;;;35.42;25.13;;;0.70;99.90;;;;;;3098780;28;20029;-86